KMWC/MWC METAR and TAF weather

Enter ICAO airport designator
Station Type Date Time Source
KMWC METAR 2020/11/27 02:45 UTC NOAA

KMWC 270245Z 31008KT 10SM OVC025 06/01 A3003


Station Type Date Time Source
KMWC Decoded METAR 2020/11/27 02:45 UTC NOAA

Milwaukee / Timmerman, WI, United States (KMWC) 43-07N 088-02W
Nov 26, 2020 - 09:45 PM EST / 2020.11.27 0245 UTC
Wind: from the NW (310 degrees) at 9 MPH (8 KT):0
Visibility: 10 mile(s):0
Sky conditions: overcast
Temperature: 42 F (6 C)
Dew Point: 33 F (1 C)
Relative Humidity: 70%
Pressure (altimeter): 30.03 in. Hg (1016 hPa)
ob: KMWC 270245Z 31008KT 10SM OVC025 06/01 A3003
cycle: 3

Station Type Date Time Source
KMWC TAF UTC NOAA

Error!

Example: see airport list